sensor_id;sensor_type;location;lat;lon;timestamp;P1;durP1;ratioP1;P2;durP2;ratioP2
77524;SDS011;66638;50.050;21.124;2024-03-08T00:01:26;16.30;;;9.80;;
77524;SDS011;66638;50.050;21.124;2024-03-08T00:04:13;20.70;;;11.80;;
77524;SDS011;66638;50.050;21.124;2024-03-08T00:07:02;19.60;;;11.10;;
77524;SDS011;66638;50.050;21.124;2024-03-08T00:09:50;16.00;;;9.90;;
77524;SDS011;66638;50.050;21.124;2024-03-08T00:12:41;14.70;;;9.50;;
77524;SDS011;66638;50.050;21.124;2024-03-08T00:15:29;20.60;;;10.70;;
77524;SDS011;66638;50.050;21.124;2024-03-08T00:18:19;18.20;;;10.90;;
77524;SDS011;66638;50.050;21.124;2024-03-08T00:21:06;15.90;;;7.70;;
77524;SDS011;66638;50.050;21.124;2024-03-08T00:23:56;10.00;;;6.00;;
77524;SDS011;66638;50.050;21.124;2024-03-08T00:26:43;16.70;;;9.20;;
77524;SDS011;66638;50.050;21.124;2024-03-08T00:29:30;16.20;;;9.10;;
77524;SDS011;66638;50.050;21.124;2024-03-08T00:32:17;21.80;;;12.60;;
77524;SDS011;66638;50.050;21.124;2024-03-08T00:35:04;17.90;;;9.10;;
77524;SDS011;66638;50.050;21.124;2024-03-08T00:37:54;14.40;;;9.40;;
77524;SDS011;66638;50.050;21.124;2024-03-08T00:40:43;12.90;;;7.50;;
77524;SDS011;66638;50.050;21.124;2024-03-08T00:46:18;17.40;;;10.40;;
77524;SDS011;66638;50.050;21.124;2024-03-08T00:49:06;18.10;;;9.30;;
77524;SDS011;66638;50.050;21.124;2024-03-08T00:51:56;23.00;;;13.30;;
77524;SDS011;66638;50.050;21.124;2024-03-08T00:54:44;19.30;;;10.60;;
77524;SDS011;66638;50.050;21.124;2024-03-08T00:57:31;19.10;;;11.70;;
77524;SDS011;66638;50.050;21.124;2024-03-08T01:00:20;18.30;;;10.70;;
77524;SDS011;66638;50.050;21.124;2024-03-08T01:03:08;11.70;;;6.30;;
77524;SDS011;66638;50.050;21.124;2024-03-08T01:05:57;15.30;;;10.40;;
77524;SDS011;66638;50.050;21.124;2024-03-08T01:08:47;18.10;;;10.20;;
77524;SDS011;66638;50.050;21.124;2024-03-08T01:11:35;17.50;;;10.00;;
77524;SDS011;66638;50.050;21.124;2024-03-08T01:14:22;14.70;;;8.90;;
77524;SDS011;66638;50.050;21.124;2024-03-08T01:17:10;19.80;;;10.50;;
77524;SDS011;66638;50.050;21.124;2024-03-08T01:19:57;22.20;;;13.20;;
77524;SDS011;66638;50.050;21.124;2024-03-08T01:25:32;17.30;;;8.90;;
77524;SDS011;66638;50.050;21.124;2024-03-08T01:28:20;20.50;;;11.40;;
77524;SDS011;66638;50.050;21.124;2024-03-08T01:31:07;18.90;;;10.50;;
77524;SDS011;66638;50.050;21.124;2024-03-08T01:33:54;21.10;;;12.00;;
77524;SDS011;66638;50.050;21.124;2024-03-08T01:36:41;22.30;;;13.00;;
77524;SDS011;66638;50.050;21.124;2024-03-08T01:39:28;17.10;;;10.40;;
77524;SDS011;66638;50.050;21.124;2024-03-08T01:42:15;20.80;;;11.60;;
77524;SDS011;66638;50.050;21.124;2024-03-08T01:45:05;22.70;;;11.90;;
77524;SDS011;66638;50.050;21.124;2024-03-08T01:47:53;22.40;;;12.50;;
77524;SDS011;66638;50.050;21.124;2024-03-08T01:50:40;20.00;;;10.90;;
77524;SDS011;66638;50.050;21.124;2024-03-08T01:53:27;18.20;;;10.70;;
77524;SDS011;66638;50.050;21.124;2024-03-08T01:56:15;17.20;;;10.00;;
77524;SDS011;66638;50.050;21.124;2024-03-08T01:59:03;19.60;;;12.40;;
77524;SDS011;66638;50.050;21.124;2024-03-08T02:01:54;19.10;;;11.20;;
77524;SDS011;66638;50.050;21.124;2024-03-08T02:04:42;20.60;;;10.70;;
77524;SDS011;66638;50.050;21.124;2024-03-08T02:07:29;18.70;;;10.40;;
77524;SDS011;66638;50.050;21.124;2024-03-08T02:10:17;20.40;;;9.80;;
77524;SDS011;66638;50.050;21.124;2024-03-08T02:13:04;16.70;;;10.00;;
77524;SDS011;66638;50.050;21.124;2024-03-08T02:18:40;23.00;;;11.10;;
77524;SDS011;66638;50.050;21.124;2024-03-08T02:21:27;20.80;;;12.50;;
77524;SDS011;66638;50.050;21.124;2024-03-08T02:24:15;16.60;;;9.20;;
77524;SDS011;66638;50.050;21.124;2024-03-08T02:27:03;19.30;;;10.40;;
77524;SDS011;66638;50.050;21.124;2024-03-08T02:29:52;21.80;;;11.90;;
77524;SDS011;66638;50.050;21.124;2024-03-08T02:32:43;19.10;;;11.00;;
77524;SDS011;66638;50.050;21.124;2024-03-08T02:35:30;23.40;;;11.70;;
77524;SDS011;66638;50.050;21.124;2024-03-08T02:38:19;24.80;;;13.90;;
77524;SDS011;66638;50.050;21.124;2024-03-08T02:41:07;20.10;;;13.00;;
77524;SDS011;66638;50.050;21.124;2024-03-08T02:43:56;15.30;;;9.90;;
77524;SDS011;66638;50.050;21.124;2024-03-08T02:46:43;14.00;;;8.50;;
77524;SDS011;66638;50.050;21.124;2024-03-08T02:49:30;21.40;;;11.90;;
77524;SDS011;66638;50.050;21.124;2024-03-08T02:52:17;21.10;;;10.90;;
77524;SDS011;66638;50.050;21.124;2024-03-08T02:55:04;20.60;;;12.70;;
77524;SDS011;66638;50.050;21.124;2024-03-08T02:57:53;20.40;;;12.40;;
77524;SDS011;66638;50.050;21.124;2024-03-08T03:00:43;21.00;;;12.60;;
77524;SDS011;66638;50.050;21.124;2024-03-08T03:06:17;21.60;;;12.50;;
77524;SDS011;66638;50.050;21.124;2024-03-08T03:09:07;21.10;;;12.80;;
77524;SDS011;66638;50.050;21.124;2024-03-08T03:11:57;19.00;;;11.70;;
77524;SDS011;66638;50.050;21.124;2024-03-08T03:14:45;17.80;;;10.70;;
77524;SDS011;66638;50.050;21.124;2024-03-08T03:17:32;21.60;;;13.30;;
77524;SDS011;66638;50.050;21.124;2024-03-08T03:20:19;20.60;;;11.50;;
77524;SDS011;66638;50.050;21.124;2024-03-08T03:23:13;23.50;;;12.50;;
77524;SDS011;66638;50.050;21.124;2024-03-08T03:26:01;23.90;;;12.40;;
77524;SDS011;66638;50.050;21.124;2024-03-08T03:28:49;22.00;;;11.20;;
77524;SDS011;66638;50.050;21.124;2024-03-08T03:31:36;20.30;;;12.70;;
77524;SDS011;66638;50.050;21.124;2024-03-08T03:34:24;21.10;;;12.50;;
77524;SDS011;66638;50.050;21.124;2024-03-08T03:37:11;22.60;;;12.50;;
77524;SDS011;66638;50.050;21.124;2024-03-08T03:39:59;22.80;;;12.70;;
77524;SDS011;66638;50.050;21.124;2024-03-08T03:42:48;16.10;;;10.10;;
77524;SDS011;66638;50.050;21.124;2024-03-08T03:45:35;17.20;;;9.50;;
77524;SDS011;66638;50.050;21.124;2024-03-08T03:48:22;21.40;;;12.40;;
77524;SDS011;66638;50.050;21.124;2024-03-08T03:51:09;23.00;;;11.40;;
77524;SDS011;66638;50.050;21.124;2024-03-08T03:53:56;24.80;;;13.40;;
77524;SDS011;66638;50.050;21.124;2024-03-08T03:56:44;25.30;;;15.50;;
77524;SDS011;66638;50.050;21.124;2024-03-08T03:59:31;20.90;;;12.90;;
77524;SDS011;66638;50.050;21.124;2024-03-08T04:02:18;21.20;;;13.40;;
77524;SDS011;66638;50.050;21.124;2024-03-08T04:05:07;24.00;;;13.30;;
77524;SDS011;66638;50.050;21.124;2024-03-08T04:07:56;16.30;;;10.10;;
77524;SDS011;66638;50.050;21.124;2024-03-08T04:10:43;18.20;;;11.00;;
77524;SDS011;66638;50.050;21.124;2024-03-08T04:13:31;20.80;;;12.80;;
77524;SDS011;66638;50.050;21.124;2024-03-08T04:16:18;23.00;;;12.80;;
77524;SDS011;66638;50.050;21.124;2024-03-08T04:19:05;21.90;;;12.20;;
77524;SDS011;66638;50.050;21.124;2024-03-08T04:21:52;23.80;;;14.80;;
77524;SDS011;66638;50.050;21.124;2024-03-08T04:24:39;23.00;;;13.70;;
77524;SDS011;66638;50.050;21.124;2024-03-08T04:27:27;25.30;;;13.40;;
77524;SDS011;66638;50.050;21.124;2024-03-08T04:30:14;26.70;;;14.70;;
77524;SDS011;66638;50.050;21.124;2024-03-08T04:33:01;22.80;;;13.90;;
77524;SDS011;66638;50.050;21.124;2024-03-08T04:35:50;23.30;;;14.30;;
77524;SDS011;66638;50.050;21.124;2024-03-08T04:38:38;23.40;;;13.40;;
77524;SDS011;66638;50.050;21.124;2024-03-08T04:41:27;21.20;;;13.40;;
77524;SDS011;66638;50.050;21.124;2024-03-08T04:44:14;20.90;;;12.70;;
77524;SDS011;66638;50.050;21.124;2024-03-08T04:47:02;20.30;;;13.10;;
77524;SDS011;66638;50.050;21.124;2024-03-08T04:49:49;14.20;;;10.40;;
77524;SDS011;66638;50.050;21.124;2024-03-08T04:52:36;14.50;;;8.90;;
77524;SDS011;66638;50.050;21.124;2024-03-08T04:55:23;17.90;;;11.70;;
77524;SDS011;66638;50.050;21.124;2024-03-08T04:58:11;21.50;;;12.70;;
77524;SDS011;66638;50.050;21.124;2024-03-08T05:00:58;25.10;;;13.90;;
77524;SDS011;66638;50.050;21.124;2024-03-08T05:03:45;21.80;;;12.50;;
77524;SDS011;66638;50.050;21.124;2024-03-08T05:06:34;22.70;;;12.20;;
77524;SDS011;66638;50.050;21.124;2024-03-08T05:09:23;25.50;;;13.50;;
77524;SDS011;66638;50.050;21.124;2024-03-08T05:12:10;25.50;;;13.70;;
77524;SDS011;66638;50.050;21.124;2024-03-08T05:14:58;25.00;;;13.50;;
77524;SDS011;66638;50.050;21.124;2024-03-08T05:17:45;21.80;;;12.40;;
77524;SDS011;66638;50.050;21.124;2024-03-08T05:20:32;24.50;;;14.20;;
77524;SDS011;66638;50.050;21.124;2024-03-08T05:23:19;20.50;;;12.50;;
77524;SDS011;66638;50.050;21.124;2024-03-08T05:26:06;21.90;;;12.50;;
77524;SDS011;66638;50.050;21.124;2024-03-08T05:28:53;21.80;;;12.20;;
77524;SDS011;66638;50.050;21.124;2024-03-08T05:31:48;22.10;;;12.40;;
77524;SDS011;66638;50.050;21.124;2024-03-08T05:34:35;22.80;;;13.80;;
77524;SDS011;66638;50.050;21.124;2024-03-08T05:37:23;26.50;;;14.60;;
77524;SDS011;66638;50.050;21.124;2024-03-08T05:40:10;23.00;;;12.70;;
77524;SDS011;66638;50.050;21.124;2024-03-08T05:42:58;27.30;;;15.30;;
77524;SDS011;66638;50.050;21.124;2024-03-08T05:45:46;29.00;;;15.00;;
77524;SDS011;66638;50.050;21.124;2024-03-08T05:48:33;23.70;;;13.10;;
77524;SDS011;66638;50.050;21.124;2024-03-08T05:51:23;23.00;;;14.10;;
77524;SDS011;66638;50.050;21.124;2024-03-08T05:54:11;17.20;;;11.00;;
77524;SDS011;66638;50.050;21.124;2024-03-08T05:59:45;8.80;;;5.10;;
77524;SDS011;66638;50.050;21.124;2024-03-08T06:02:32;20.70;;;11.30;;
77524;SDS011;66638;50.050;21.124;2024-03-08T06:08:09;19.90;;;10.90;;
77524;SDS011;66638;50.050;21.124;2024-03-08T06:10:58;16.90;;;9.80;;
77524;SDS011;66638;50.050;21.124;2024-03-08T06:13:46;23.50;;;14.50;;
77524;SDS011;66638;50.050;21.124;2024-03-08T06:16:34;21.60;;;13.30;;
77524;SDS011;66638;50.050;21.124;2024-03-08T06:19:22;22.30;;;13.70;;
77524;SDS011;66638;50.050;21.124;2024-03-08T06:22:10;22.90;;;11.90;;
77524;SDS011;66638;50.050;21.124;2024-03-08T06:24:57;20.90;;;11.00;;
77524;SDS011;66638;50.050;21.124;2024-03-08T06:27:44;20.00;;;10.40;;
77524;SDS011;66638;50.050;21.124;2024-03-08T06:30:33;28.60;;;13.60;;
77524;SDS011;66638;50.050;21.124;2024-03-08T06:33:21;20.10;;;11.70;;
77524;SDS011;66638;50.050;21.124;2024-03-08T06:36:09;23.00;;;11.80;;
77524;SDS011;66638;50.050;21.124;2024-03-08T06:38:58;23.90;;;13.80;;
77524;SDS011;66638;50.050;21.124;2024-03-08T06:41:45;16.80;;;10.10;;
77524;SDS011;66638;50.050;21.124;2024-03-08T06:47:21;19.30;;;11.30;;
77524;SDS011;66638;50.050;21.124;2024-03-08T06:50:12;21.20;;;13.40;;
77524;SDS011;66638;50.050;21.124;2024-03-08T06:53:01;23.40;;;12.50;;
77524;SDS011;66638;50.050;21.124;2024-03-08T06:55:50;21.00;;;13.50;;
77524;SDS011;66638;50.050;21.124;2024-03-08T07:01:24;22.00;;;13.10;;
77524;SDS011;66638;50.050;21.124;2024-03-08T07:04:11;19.50;;;13.00;;
77524;SDS011;66638;50.050;21.124;2024-03-08T07:09:46;20.50;;;13.00;;
77524;SDS011;66638;50.050;21.124;2024-03-08T07:12:33;17.10;;;12.00;;
77524;SDS011;66638;50.050;21.124;2024-03-08T07:15:20;21.50;;;12.10;;
77524;SDS011;66638;50.050;21.124;2024-03-08T07:18:07;21.30;;;12.60;;
77524;SDS011;66638;50.050;21.124;2024-03-08T07:20:56;17.70;;;11.70;;
77524;SDS011;66638;50.050;21.124;2024-03-08T07:23:43;17.80;;;11.10;;
77524;SDS011;66638;50.050;21.124;2024-03-08T07:26:41;19.80;;;12.70;;
77524;SDS011;66638;50.050;21.124;2024-03-08T07:29:28;19.20;;;12.80;;
77524;SDS011;66638;50.050;21.124;2024-03-08T07:32:15;18.20;;;11.80;;
77524;SDS011;66638;50.050;21.124;2024-03-08T07:35:08;21.10;;;13.50;;
77524;SDS011;66638;50.050;21.124;2024-03-08T07:37:56;18.70;;;13.10;;
77524;SDS011;66638;50.050;21.124;2024-03-08T07:40:44;16.50;;;11.50;;
77524;SDS011;66638;50.050;21.124;2024-03-08T07:43:31;18.90;;;13.50;;
77524;SDS011;66638;50.050;21.124;2024-03-08T07:46:19;17.20;;;11.60;;
77524;SDS011;66638;50.050;21.124;2024-03-08T07:49:06;16.90;;;13.40;;
77524;SDS011;66638;50.050;21.124;2024-03-08T07:51:53;17.20;;;12.40;;
77524;SDS011;66638;50.050;21.124;2024-03-08T07:54:40;16.20;;;12.00;;
77524;SDS011;66638;50.050;21.124;2024-03-08T07:57:28;16.30;;;12.80;;
77524;SDS011;66638;50.050;21.124;2024-03-08T08:00:16;14.40;;;12.90;;
77524;SDS011;66638;50.050;21.124;2024-03-08T08:03:05;13.80;;;11.70;;
77524;SDS011;66638;50.050;21.124;2024-03-08T08:05:52;14.60;;;12.30;;
77524;SDS011;66638;50.050;21.124;2024-03-08T08:08:41;13.00;;;10.80;;
77524;SDS011;66638;50.050;21.124;2024-03-08T08:11:29;13.40;;;11.20;;
77524;SDS011;66638;50.050;21.124;2024-03-08T08:14:16;14.30;;;12.60;;
77524;SDS011;66638;50.050;21.124;2024-03-08T08:17:03;14.80;;;11.60;;
77524;SDS011;66638;50.050;21.124;2024-03-08T08:19:51;14.70;;;11.60;;
77524;SDS011;66638;50.050;21.124;2024-03-08T08:22:39;15.90;;;12.60;;
77524;SDS011;66638;50.050;21.124;2024-03-08T08:25:27;16.00;;;12.00;;
77524;SDS011;66638;50.050;21.124;2024-03-08T08:28:14;11.60;;;8.10;;
77524;SDS011;66638;50.050;21.124;2024-03-08T08:31:04;17.70;;;12.90;;
77524;SDS011;66638;50.050;21.124;2024-03-08T08:33:51;15.70;;;13.70;;
77524;SDS011;66638;50.050;21.124;2024-03-08T08:36:44;15.20;;;12.60;;
77524;SDS011;66638;50.050;21.124;2024-03-08T08:39:32;16.00;;;13.10;;
77524;SDS011;66638;50.050;21.124;2024-03-08T08:42:19;15.90;;;14.20;;
77524;SDS011;66638;50.050;21.124;2024-03-08T08:45:07;16.20;;;14.60;;
77524;SDS011;66638;50.050;21.124;2024-03-08T08:47:55;15.20;;;13.70;;
77524;SDS011;66638;50.050;21.124;2024-03-08T08:50:42;16.50;;;14.90;;
77524;SDS011;66638;50.050;21.124;2024-03-08T08:53:30;16.90;;;15.20;;
77524;SDS011;66638;50.050;21.124;2024-03-08T08:56:18;14.90;;;13.40;;
77524;SDS011;66638;50.050;21.124;2024-03-08T08:59:05;17.80;;;16.20;;
77524;SDS011;66638;50.050;21.124;2024-03-08T09:01:52;17.60;;;15.80;;
77524;SDS011;66638;50.050;21.124;2024-03-08T09:04:40;16.10;;;14.60;;
77524;SDS011;66638;50.050;21.124;2024-03-08T09:07:28;17.20;;;15.50;;
77524;SDS011;66638;50.050;21.124;2024-03-08T09:10:14;16.20;;;14.60;;
77524;SDS011;66638;50.050;21.124;2024-03-08T09:13:02;16.30;;;14.70;;
77524;SDS011;66638;50.050;21.124;2024-03-08T09:15:51;15.90;;;14.10;;
77524;SDS011;66638;50.050;21.124;2024-03-08T09:18:39;17.00;;;14.90;;
77524;SDS011;66638;50.050;21.124;2024-03-08T09:21:27;18.40;;;16.50;;
77524;SDS011;66638;50.050;21.124;2024-03-08T09:24:14;19.20;;;16.80;;
77524;SDS011;66638;50.050;21.124;2024-03-08T09:27:01;18.00;;;16.10;;
77524;SDS011;66638;50.050;21.124;2024-03-08T09:29:48;16.30;;;14.40;;
77524;SDS011;66638;50.050;21.124;2024-03-08T09:32:35;18.10;;;15.80;;
77524;SDS011;66638;50.050;21.124;2024-03-08T09:35:23;18.40;;;16.30;;
77524;SDS011;66638;50.050;21.124;2024-03-08T09:38:11;18.80;;;16.80;;
77524;SDS011;66638;50.050;21.124;2024-03-08T09:41:00;19.40;;;16.60;;
77524;SDS011;66638;50.050;21.124;2024-03-08T09:43:51;13.80;;;12.30;;
77524;SDS011;66638;50.050;21.124;2024-03-08T09:46:38;16.60;;;14.90;;
77524;SDS011;66638;50.050;21.124;2024-03-08T09:49:25;17.40;;;15.60;;
77524;SDS011;66638;50.050;21.124;2024-03-08T09:52:12;16.00;;;14.40;;
77524;SDS011;66638;50.050;21.124;2024-03-08T09:54:59;23.40;;;21.00;;
77524;SDS011;66638;50.050;21.124;2024-03-08T09:57:48;18.00;;;16.20;;
77524;SDS011;66638;50.050;21.124;2024-03-08T10:00:55;18.60;;;16.60;;
77524;SDS011;66638;50.050;21.124;2024-03-08T10:03:48;17.00;;;14.80;;
77524;SDS011;66638;50.050;21.124;2024-03-08T10:06:36;17.80;;;15.70;;
77524;SDS011;66638;50.050;21.124;2024-03-08T10:09:24;18.10;;;16.30;;
77524;SDS011;66638;50.050;21.124;2024-03-08T10:12:14;17.40;;;15.70;;
77524;SDS011;66638;50.050;21.124;2024-03-08T10:15:05;15.10;;;13.60;;
77524;SDS011;66638;50.050;21.124;2024-03-08T10:17:57;19.50;;;16.70;;
77524;SDS011;66638;50.050;21.124;2024-03-08T10:23:33;15.10;;;13.60;;
77524;SDS011;66638;50.050;21.124;2024-03-08T10:26:21;18.60;;;16.60;;
77524;SDS011;66638;50.050;21.124;2024-03-08T10:29:08;17.00;;;15.20;;
77524;SDS011;66638;50.050;21.124;2024-03-08T10:31:55;18.00;;;16.30;;
77524;SDS011;66638;50.050;21.124;2024-03-08T10:34:42;16.50;;;14.80;;
77524;SDS011;66638;50.050;21.124;2024-03-08T10:37:32;18.40;;;16.30;;
77524;SDS011;66638;50.050;21.124;2024-03-08T10:40:20;15.20;;;13.60;;
77524;SDS011;66638;50.050;21.124;2024-03-08T10:43:07;17.10;;;15.30;;
77524;SDS011;66638;50.050;21.124;2024-03-08T10:46:03;17.20;;;15.60;;
77524;SDS011;66638;50.050;21.124;2024-03-08T10:48:59;17.80;;;16.10;;
77524;SDS011;66638;50.050;21.124;2024-03-08T10:51:50;18.00;;;16.10;;
77524;SDS011;66638;50.050;21.124;2024-03-08T10:54:38;17.00;;;15.30;;
77524;SDS011;66638;50.050;21.124;2024-03-08T10:57:26;16.00;;;14.30;;
77524;SDS011;66638;50.050;21.124;2024-03-08T11:00:13;17.00;;;15.40;;
77524;SDS011;66638;50.050;21.124;2024-03-08T11:03:02;15.90;;;14.40;;
77524;SDS011;66638;50.050;21.124;2024-03-08T11:05:50;17.50;;;15.80;;
77524;SDS011;66638;50.050;21.124;2024-03-08T11:08:37;17.90;;;16.00;;
77524;SDS011;66638;50.050;21.124;2024-03-08T11:11:26;16.80;;;15.10;;
77524;SDS011;66638;50.050;21.124;2024-03-08T11:20:37;18.10;;;16.30;;
77524;SDS011;66638;50.050;21.124;2024-03-08T11:23:25;19.50;;;17.60;;
77524;SDS011;66638;50.050;21.124;2024-03-08T11:26:20;15.20;;;13.60;;
77524;SDS011;66638;50.050;21.124;2024-03-08T11:32:23;17.90;;;16.00;;
77524;SDS011;66638;50.050;21.124;2024-03-08T11:35:21;16.20;;;14.50;;
77524;SDS011;66638;50.050;21.124;2024-03-08T11:38:12;14.70;;;13.20;;
77524;SDS011;66638;50.050;21.124;2024-03-08T11:41:00;16.90;;;15.20;;
77524;SDS011;66638;50.050;21.124;2024-03-08T11:43:47;18.10;;;16.20;;
77524;SDS011;66638;50.050;21.124;2024-03-08T11:46:35;18.00;;;16.10;;
77524;SDS011;66638;50.050;21.124;2024-03-08T11:49:22;18.80;;;17.00;;
77524;SDS011;66638;50.050;21.124;2024-03-08T11:52:11;18.40;;;16.40;;
77524;SDS011;66638;50.050;21.124;2024-03-08T11:55:02;16.70;;;15.00;;
77524;SDS011;66638;50.050;21.124;2024-03-08T11:57:59;18.50;;;16.00;;
77524;SDS011;66638;50.050;21.124;2024-03-08T12:00:47;22.90;;;18.90;;
77524;SDS011;66638;50.050;21.124;2024-03-08T12:03:35;19.40;;;17.50;;
77524;SDS011;66638;50.050;21.124;2024-03-08T12:06:25;18.00;;;15.10;;
77524;SDS011;66638;50.050;21.124;2024-03-08T12:09:14;21.70;;;18.10;;
77524;SDS011;66638;50.050;21.124;2024-03-08T12:12:03;18.30;;;14.70;;
77524;SDS011;66638;50.050;21.124;2024-03-08T12:14:51;18.40;;;15.50;;
77524;SDS011;66638;50.050;21.124;2024-03-08T12:17:39;18.70;;;16.70;;
77524;SDS011;66638;50.050;21.124;2024-03-08T12:20:28;17.40;;;15.50;;
77524;SDS011;66638;50.050;21.124;2024-03-08T12:23:16;14.00;;;11.10;;
77524;SDS011;66638;50.050;21.124;2024-03-08T12:26:10;17.60;;;13.50;;
77524;SDS011;66638;50.050;21.124;2024-03-08T12:32:11;18.20;;;14.10;;
77524;SDS011;66638;50.050;21.124;2024-03-08T12:34:59;18.90;;;14.60;;
77524;SDS011;66638;50.050;21.124;2024-03-08T12:37:46;17.40;;;11.50;;
77524;SDS011;66638;50.050;21.124;2024-03-08T12:40:35;19.00;;;12.80;;
77524;SDS011;66638;50.050;21.124;2024-03-08T12:43:28;20.10;;;13.70;;
77524;SDS011;66638;50.050;21.124;2024-03-08T12:46:17;16.80;;;10.10;;
77524;SDS011;66638;50.050;21.124;2024-03-08T12:49:13;20.70;;;13.80;;
77524;SDS011;66638;50.050;21.124;2024-03-08T12:52:08;15.10;;;10.00;;
77524;SDS011;66638;50.050;21.124;2024-03-08T12:54:55;19.20;;;13.90;;
77524;SDS011;66638;50.050;21.124;2024-03-08T12:57:43;17.10;;;10.30;;
77524;SDS011;66638;50.050;21.124;2024-03-08T13:00:31;19.00;;;12.80;;
77524;SDS011;66638;50.050;21.124;2024-03-08T13:03:17;23.00;;;13.60;;
77524;SDS011;66638;50.050;21.124;2024-03-08T13:06:05;18.20;;;10.80;;
77524;SDS011;66638;50.050;21.124;2024-03-08T13:08:55;19.80;;;12.80;;
77524;SDS011;66638;50.050;21.124;2024-03-08T13:11:43;15.80;;;11.50;;
77524;SDS011;66638;50.050;21.124;2024-03-08T13:14:30;17.50;;;12.10;;
77524;SDS011;66638;50.050;21.124;2024-03-08T13:17:19;16.90;;;10.10;;
77524;SDS011;66638;50.050;21.124;2024-03-08T13:20:07;20.20;;;13.10;;
77524;SDS011;66638;50.050;21.124;2024-03-08T13:22:56;18.20;;;10.80;;
77524;SDS011;66638;50.050;21.124;2024-03-08T13:25:44;18.30;;;10.70;;
77524;SDS011;66638;50.050;21.124;2024-03-08T13:28:33;18.40;;;12.90;;
77524;SDS011;66638;50.050;21.124;2024-03-08T13:31:23;16.90;;;11.60;;
77524;SDS011;66638;50.050;21.124;2024-03-08T13:34:10;16.90;;;10.70;;
77524;SDS011;66638;50.050;21.124;2024-03-08T13:36:58;18.40;;;11.60;;
77524;SDS011;66638;50.050;21.124;2024-03-08T13:39:47;18.00;;;11.40;;
77524;SDS011;66638;50.050;21.124;2024-03-08T13:42:34;18.10;;;11.60;;
77524;SDS011;66638;50.050;21.124;2024-03-08T13:45:21;18.70;;;11.70;;
77524;SDS011;66638;50.050;21.124;2024-03-08T13:48:12;19.10;;;12.20;;
77524;SDS011;66638;50.050;21.124;2024-03-08T13:50:59;21.30;;;12.70;;
77524;SDS011;66638;50.050;21.124;2024-03-08T13:53:46;18.10;;;11.50;;
77524;SDS011;66638;50.050;21.124;2024-03-08T13:59:20;22.70;;;12.30;;
77524;SDS011;66638;50.050;21.124;2024-03-08T14:02:09;16.00;;;9.90;;
77524;SDS011;66638;50.050;21.124;2024-03-08T14:05:00;17.70;;;12.40;;
77524;SDS011;66638;50.050;21.124;2024-03-08T14:07:50;25.30;;;16.10;;
77524;SDS011;66638;50.050;21.124;2024-03-08T14:10:40;20.00;;;12.20;;
77524;SDS011;66638;50.050;21.124;2024-03-08T14:13:29;16.00;;;10.40;;
77524;SDS011;66638;50.050;21.124;2024-03-08T14:16:16;18.30;;;12.90;;
77524;SDS011;66638;50.050;21.124;2024-03-08T14:19:03;18.30;;;11.60;;
77524;SDS011;66638;50.050;21.124;2024-03-08T14:21:52;19.30;;;12.40;;
77524;SDS011;66638;50.050;21.124;2024-03-08T14:24:40;16.30;;;9.90;;
77524;SDS011;66638;50.050;21.124;2024-03-08T14:27:28;16.20;;;11.30;;
77524;SDS011;66638;50.050;21.124;2024-03-08T14:30:16;16.60;;;9.90;;
77524;SDS011;66638;50.050;21.124;2024-03-08T14:33:18;20.30;;;11.50;;
77524;SDS011;66638;50.050;21.124;2024-03-08T14:36:05;13.50;;;8.30;;
77524;SDS011;66638;50.050;21.124;2024-03-08T14:38:53;21.50;;;13.40;;
77524;SDS011;66638;50.050;21.124;2024-03-08T14:41:40;19.60;;;12.00;;
77524;SDS011;66638;50.050;21.124;2024-03-08T14:44:27;18.40;;;12.10;;
77524;SDS011;66638;50.050;21.124;2024-03-08T14:47:16;19.20;;;13.10;;
77524;SDS011;66638;50.050;21.124;2024-03-08T14:50:04;20.20;;;11.40;;
77524;SDS011;66638;50.050;21.124;2024-03-08T14:52:53;19.70;;;12.90;;
77524;SDS011;66638;50.050;21.124;2024-03-08T14:55:41;19.40;;;10.80;;
77524;SDS011;66638;50.050;21.124;2024-03-08T14:58:29;21.90;;;13.30;;
77524;SDS011;66638;50.050;21.124;2024-03-08T15:04:03;20.40;;;12.30;;
77524;SDS011;66638;50.050;21.124;2024-03-08T15:06:55;25.30;;;13.00;;
77524;SDS011;66638;50.050;21.124;2024-03-08T15:09:43;21.40;;;13.60;;
77524;SDS011;66638;50.050;21.124;2024-03-08T15:12:31;22.80;;;15.30;;
77524;SDS011;66638;50.050;21.124;2024-03-08T15:15:18;25.20;;;13.70;;
77524;SDS011;66638;50.050;21.124;2024-03-08T15:18:05;18.00;;;11.00;;
77524;SDS011;66638;50.050;21.124;2024-03-08T15:20:54;21.10;;;11.70;;
77524;SDS011;66638;50.050;21.124;2024-03-08T15:23:42;21.50;;;11.10;;
77524;SDS011;66638;50.050;21.124;2024-03-08T15:26:36;19.10;;;12.20;;
77524;SDS011;66638;50.050;21.124;2024-03-08T15:29:23;26.40;;;12.70;;
77524;SDS011;66638;50.050;21.124;2024-03-08T15:32:13;19.10;;;9.80;;
77524;SDS011;66638;50.050;21.124;2024-03-08T15:35:07;24.50;;;12.90;;
77524;SDS011;66638;50.050;21.124;2024-03-08T15:37:56;24.40;;;14.30;;
77524;SDS011;66638;50.050;21.124;2024-03-08T15:40:45;26.40;;;14.70;;
77524;SDS011;66638;50.050;21.124;2024-03-08T15:43:32;27.70;;;16.40;;
77524;SDS011;66638;50.050;21.124;2024-03-08T15:46:22;26.70;;;15.20;;
77524;SDS011;66638;50.050;21.124;2024-03-08T15:51:57;20.20;;;11.10;;
77524;SDS011;66638;50.050;21.124;2024-03-08T15:54:45;34.20;;;15.90;;
77524;SDS011;66638;50.050;21.124;2024-03-08T15:57:35;23.70;;;12.70;;
77524;SDS011;66638;50.050;21.124;2024-03-08T16:00:24;30.10;;;18.00;;
77524;SDS011;66638;50.050;21.124;2024-03-08T16:03:22;25.70;;;14.20;;
77524;SDS011;66638;50.050;21.124;2024-03-08T16:06:10;24.50;;;13.10;;
77524;SDS011;66638;50.050;21.124;2024-03-08T16:08:58;23.00;;;12.10;;
77524;SDS011;66638;50.050;21.124;2024-03-08T16:11:46;28.00;;;15.40;;
77524;SDS011;66638;50.050;21.124;2024-03-08T16:14:36;23.80;;;13.70;;
77524;SDS011;66638;50.050;21.124;2024-03-08T16:17:25;25.20;;;15.10;;
77524;SDS011;66638;50.050;21.124;2024-03-08T16:20:12;29.90;;;15.30;;
77524;SDS011;66638;50.050;21.124;2024-03-08T16:23:01;35.90;;;18.90;;
77524;SDS011;66638;50.050;21.124;2024-03-08T16:25:49;34.00;;;18.30;;
77524;SDS011;66638;50.050;21.124;2024-03-08T16:28:37;31.40;;;15.70;;
77524;SDS011;66638;50.050;21.124;2024-03-08T16:31:28;35.80;;;18.70;;
77524;SDS011;66638;50.050;21.124;2024-03-08T16:34:15;35.60;;;18.00;;
77524;SDS011;66638;50.050;21.124;2024-03-08T16:37:03;39.20;;;19.30;;
77524;SDS011;66638;50.050;21.124;2024-03-08T16:39:50;39.90;;;20.00;;
77524;SDS011;66638;50.050;21.124;2024-03-08T16:42:37;36.40;;;18.50;;
77524;SDS011;66638;50.050;21.124;2024-03-08T16:45:26;33.60;;;16.90;;
77524;SDS011;66638;50.050;21.124;2024-03-08T16:48:13;31.50;;;16.90;;
77524;SDS011;66638;50.050;21.124;2024-03-08T16:53:47;29.70;;;14.80;;
77524;SDS011;66638;50.050;21.124;2024-03-08T16:56:35;29.90;;;15.20;;
77524;SDS011;66638;50.050;21.124;2024-03-08T16:59:25;30.00;;;14.60;;
77524;SDS011;66638;50.050;21.124;2024-03-08T17:02:13;29.10;;;16.00;;
77524;SDS011;66638;50.050;21.124;2024-03-08T17:05:00;28.20;;;13.70;;